createdAt,value
2023-07-25T00:00:34.350Z,94.60
2023-07-25T00:03:02.743Z,94.80
2023-07-25T00:05:30.822Z,95.00
2023-07-25T00:08:01.666Z,95.00
2023-07-25T00:10:34.262Z,95.10
2023-07-25T00:13:02.433Z,95.60
2023-07-25T00:15:30.565Z,95.70
2023-07-25T00:18:01.042Z,96.10
2023-07-25T00:20:29.353Z,95.40
2023-07-25T00:22:57.436Z,96.00
2023-07-25T00:25:25.894Z,96.10
2023-07-25T00:27:54.125Z,95.70
2023-07-25T00:30:25.553Z,96.20
2023-07-25T00:32:53.817Z,96.30
2023-07-25T00:35:22.137Z,96.50
2023-07-25T00:37:52.894Z,96.60
2023-07-25T00:40:21.116Z,97.00
2023-07-25T00:42:54.556Z,96.20
2023-07-25T00:45:25.520Z,96.80
2023-07-25T00:47:54.130Z,97.10
2023-07-25T00:50:22.488Z,97.10
2023-07-25T00:52:51.402Z,97.30
2023-07-25T00:55:19.796Z,98.40
2023-07-25T00:57:47.993Z,99.90
2023-07-25T01:00:16.101Z,99.90
2023-07-25T01:02:44.342Z,99.90
2023-07-25T01:05:14.924Z,99.90
2023-07-25T01:07:43.125Z,99.90
2023-07-25T01:10:11.354Z,99.90
2023-07-25T01:12:39.495Z,99.90
2023-07-25T01:15:07.893Z,99.90
2023-07-25T01:17:36.500Z,99.90
2023-07-25T01:20:09.695Z,99.90
2023-07-25T01:22:38.797Z,99.90
2023-07-25T01:25:08.559Z,99.90
2023-07-25T01:27:39.323Z,99.90
2023-07-25T01:30:07.849Z,99.90
2023-07-25T01:32:36.030Z,99.90
2023-07-25T01:35:04.747Z,99.90
2023-07-25T01:37:32.891Z,99.90
2023-07-25T01:40:01.100Z,99.90
2023-07-25T01:42:29.318Z,99.90
2023-07-25T01:44:57.597Z,99.90
2023-07-25T01:47:27.585Z,99.90
2023-07-25T01:49:58.757Z,99.90
2023-07-25T01:52:26.927Z,99.90
2023-07-25T01:54:55.404Z,99.90
2023-07-25T01:57:23.667Z,99.90
2023-07-25T01:59:53.302Z,99.90
2023-07-25T02:02:21.510Z,99.90
2023-07-25T02:04:52.148Z,99.90
2023-07-25T02:07:20.248Z,99.90
2023-07-25T02:09:50.639Z,99.90
2023-07-25T02:12:19.792Z,99.90
2023-07-25T02:14:50.641Z,99.90
2023-07-25T02:17:21.574Z,99.90
2023-07-25T02:19:49.830Z,99.90
2023-07-25T02:22:18.026Z,99.90
2023-07-25T02:24:46.176Z,99.90
2023-07-25T02:27:14.412Z,99.90
2023-07-25T02:29:42.589Z,99.90
2023-07-25T02:32:10.715Z,99.90
2023-07-25T02:34:38.815Z,99.90
2023-07-25T02:37:07.058Z,99.90
2023-07-25T02:39:36.292Z,99.90
2023-07-25T02:42:04.637Z,99.90
2023-07-25T02:44:32.793Z,99.90
2023-07-25T02:47:00.927Z,99.90
2023-07-25T02:49:29.140Z,99.90
2023-07-25T02:51:57.204Z,99.90
2023-07-25T02:54:25.526Z,99.90
2023-07-25T02:56:55.990Z,99.90
2023-07-25T02:59:24.192Z,99.90
2023-07-25T03:01:52.359Z,99.90
2023-07-25T03:04:20.686Z,99.90
2023-07-25T03:06:48.776Z,99.90
2023-07-25T03:09:17.024Z,99.90
2023-07-25T03:11:45.174Z,99.90
2023-07-25T03:14:13.344Z,99.90
2023-07-25T03:16:41.552Z,99.90
2023-07-25T03:19:09.783Z,99.90
2023-07-25T03:21:38.312Z,99.90
2023-07-25T03:24:06.649Z,99.90
2023-07-25T03:26:34.720Z,99.90
2023-07-25T03:29:02.926Z,99.90
2023-07-25T03:31:31.930Z,99.90
2023-07-25T03:34:02.697Z,99.90
2023-07-25T03:36:30.812Z,99.90
2023-07-25T03:39:01.275Z,99.90
2023-07-25T03:41:31.975Z,99.90
2023-07-25T03:44:00.527Z,99.90
2023-07-25T03:46:28.750Z,99.90
2023-07-25T03:48:59.677Z,99.90
2023-07-25T03:51:27.914Z,99.90
2023-07-25T03:53:56.111Z,99.90
2023-07-25T03:56:24.313Z,99.90
2023-07-25T03:58:54.761Z,99.90
2023-07-25T04:01:27.882Z,99.90
2023-07-25T04:03:56.254Z,99.90
2023-07-25T04:06:31.671Z,99.90
2023-07-25T04:08:59.946Z,99.90
2023-07-25T04:11:28.285Z,99.90
2023-07-25T04:13:56.685Z,99.90
2023-07-25T04:16:25.024Z,99.90
2023-07-25T04:18:53.211Z,99.90
2023-07-25T04:21:23.592Z,99.90
2023-07-25T04:23:51.762Z,99.90
2023-07-25T04:26:20.046Z,99.90
2023-07-25T04:28:49.956Z,99.90
2023-07-25T04:31:18.185Z,99.90
2023-07-25T04:33:46.423Z,99.90
2023-07-25T04:36:14.779Z,99.90
2023-07-25T04:38:45.267Z,99.90
2023-07-25T04:41:13.574Z,99.90
2023-07-25T04:43:41.692Z,99.90
2023-07-25T04:46:09.797Z,99.90
2023-07-25T04:48:40.200Z,99.90
2023-07-25T04:51:10.746Z,99.90
2023-07-25T04:53:39.014Z,99.90
2023-07-25T04:56:07.229Z,99.90
2023-07-25T04:58:39.977Z,99.90
2023-07-25T05:01:08.981Z,99.90
2023-07-25T05:03:37.297Z,99.90
2023-07-25T05:06:05.607Z,99.90
2023-07-25T05:08:33.715Z,99.90
2023-07-25T05:11:03.493Z,99.90
2023-07-25T05:13:31.729Z,99.90
2023-07-25T05:16:02.177Z,99.90
2023-07-25T05:18:30.526Z,99.90
2023-07-25T05:20:58.571Z,99.90
2023-07-25T05:23:26.762Z,99.90
2023-07-25T05:25:59.735Z,99.90
2023-07-25T05:28:27.820Z,99.90
2023-07-25T05:30:55.951Z,99.90
2023-07-25T05:33:24.110Z,99.90
2023-07-25T05:35:59.982Z,99.90
2023-07-25T05:38:28.259Z,99.90
2023-07-25T05:40:57.330Z,99.90
2023-07-25T05:43:25.615Z,99.90
2023-07-25T05:45:53.831Z,99.90
2023-07-25T05:48:22.158Z,99.90
2023-07-25T05:50:53.797Z,99.90
2023-07-25T05:53:22.023Z,99.90
2023-07-25T05:55:50.153Z,99.90
2023-07-25T05:58:20.718Z,99.90
2023-07-25T06:00:49.249Z,99.90
2023-07-25T06:03:17.687Z,99.90
2023-07-25T06:05:45.931Z,99.90
2023-07-25T06:08:14.053Z,99.90
2023-07-25T06:10:42.175Z,99.90
2023-07-25T06:13:12.861Z,99.90
2023-07-25T06:15:44.109Z,99.90
2023-07-25T06:18:12.319Z,99.90
2023-07-25T06:20:40.671Z,99.90
2023-07-25T06:23:08.918Z,99.90
2023-07-25T06:25:37.804Z,99.90
2023-07-25T06:28:07.586Z,99.90
2023-07-25T06:30:36.187Z,99.90
2023-07-25T06:33:04.718Z,99.90
2023-07-25T06:35:33.044Z,99.90
2023-07-25T06:38:04.551Z,99.90
2023-07-25T06:40:32.905Z,99.90
2023-07-25T06:43:01.186Z,99.90
2023-07-25T06:45:30.027Z,99.90
2023-07-25T06:47:58.182Z,99.90
2023-07-25T06:50:34.482Z,99.90
2023-07-25T06:53:02.764Z,99.90
2023-07-25T06:55:40.718Z,99.90
2023-07-25T06:58:08.814Z,99.90
2023-07-25T07:00:40.958Z,99.90
2023-07-25T07:03:10.259Z,99.90
2023-07-25T07:05:38.544Z,99.90
2023-07-25T07:08:06.824Z,99.90
2023-07-25T07:10:35.283Z,99.80
2023-07-25T07:13:03.870Z,99.90
2023-07-25T07:15:37.889Z,98.20
2023-07-25T07:18:06.117Z,97.30
2023-07-25T07:20:34.393Z,96.00
2023-07-25T07:23:02.529Z,94.60
2023-07-25T07:25:30.707Z,94.00
2023-07-25T07:27:58.914Z,93.90
2023-07-25T07:30:28.145Z,93.20
2023-07-25T07:32:57.300Z,92.40
2023-07-25T07:35:25.908Z,91.80
2023-07-25T07:37:54.848Z,90.50
2023-07-25T07:40:23.178Z,89.40
2023-07-25T07:42:51.530Z,87.10
2023-07-25T07:45:25.400Z,85.50
2023-07-25T07:47:56.543Z,83.60
2023-07-25T07:50:25.065Z,82.00
2023-07-25T07:52:56.653Z,81.20
2023-07-25T07:55:27.775Z,78.90
2023-07-25T07:57:56.930Z,77.50
2023-07-25T08:00:28.088Z,75.10
2023-07-25T08:03:01.664Z,74.20
2023-07-25T08:05:32.706Z,70.80
2023-07-25T08:08:00.968Z,70.40
2023-07-25T08:10:29.277Z,70.40
2023-07-25T08:12:57.441Z,68.70
2023-07-25T08:15:25.560Z,67.00
2023-07-25T08:17:56.144Z,66.70
2023-07-25T08:20:24.486Z,64.70
2023-07-25T08:22:53.116Z,63.90
2023-07-25T08:25:21.252Z,62.00
2023-07-25T08:27:49.418Z,59.90
2023-07-25T08:30:17.571Z,60.40
2023-07-25T08:32:48.262Z,60.10
2023-07-25T08:35:16.636Z,59.70
2023-07-25T08:37:44.767Z,56.90
2023-07-25T08:40:13.046Z,56.30
2023-07-25T08:42:45.643Z,57.50
2023-07-25T08:45:14.098Z,55.50
2023-07-25T08:47:42.955Z,54.10
2023-07-25T08:50:16.660Z,53.90
2023-07-25T08:52:49.928Z,51.40
2023-07-25T08:55:21.927Z,52.40
2023-07-25T08:57:50.663Z,52.20
2023-07-25T09:00:20.916Z,51.60
2023-07-25T09:02:53.371Z,50.90
2023-07-25T09:05:22.222Z,52.50
2023-07-25T09:07:50.328Z,48.60
2023-07-25T09:10:21.080Z,48.80
2023-07-25T09:12:51.732Z,48.60
2023-07-25T09:15:22.945Z,47.20
2023-07-25T09:17:53.884Z,50.10
2023-07-25T09:20:22.491Z,50.90
2023-07-25T09:22:50.616Z,50.60
2023-07-25T09:25:18.905Z,48.20
2023-07-25T09:27:55.056Z,50.00
2023-07-25T09:30:30.516Z,50.60
2023-07-25T09:32:58.811Z,44.40
2023-07-25T09:35:26.969Z,46.00
2023-07-25T09:37:56.113Z,46.10
2023-07-25T09:40:24.563Z,47.00
2023-07-25T09:42:52.904Z,46.80
2023-07-25T09:45:21.385Z,47.30
2023-07-25T09:47:52.023Z,47.30
2023-07-25T09:50:23.364Z,46.80
2023-07-25T09:52:54.256Z,47.20
2023-07-25T09:55:24.693Z,45.60
2023-07-25T09:57:56.524Z,44.60
2023-07-25T10:00:25.075Z,43.40
2023-07-25T10:02:54.111Z,46.20
2023-07-25T10:05:22.983Z,44.70
2023-07-25T10:07:55.498Z,44.20
2023-07-25T10:10:27.095Z,45.00
2023-07-25T10:12:56.399Z,46.30
2023-07-25T10:15:34.204Z,45.60
2023-07-25T10:18:03.237Z,44.90
2023-07-25T10:20:31.603Z,43.70
2023-07-25T10:23:10.963Z,44.10
2023-07-25T10:25:39.230Z,39.20
2023-07-25T10:28:08.181Z,42.20
2023-07-25T10:30:46.765Z,44.80
2023-07-25T10:33:17.704Z,43.40
2023-07-25T10:35:52.090Z,42.00
2023-07-25T10:38:36.533Z,40.40
2023-07-25T10:41:10.962Z,42.70
2023-07-25T10:43:50.707Z,41.80
2023-07-25T10:46:27.886Z,39.80
2023-07-25T10:48:57.040Z,39.60
2023-07-25T10:51:45.192Z,41.50
2023-07-25T10:54:18.689Z,37.30
2023-07-25T10:57:05.592Z,39.40
2023-07-25T10:59:33.839Z,35.90
2023-07-25T11:02:02.746Z,40.80
2023-07-25T11:04:32.407Z,40.70
2023-07-25T11:07:01.039Z,40.80
2023-07-25T11:09:31.394Z,40.80
2023-07-25T11:12:01.782Z,41.20
2023-07-25T11:14:35.603Z,41.40
2023-07-25T11:17:07.292Z,40.40
2023-07-25T11:19:35.555Z,40.70
2023-07-25T11:22:09.043Z,42.40
2023-07-25T11:24:44.484Z,43.40
2023-07-25T11:27:13.265Z,39.30
2023-07-25T11:29:44.179Z,37.60
2023-07-25T11:32:12.374Z,38.10
2023-07-25T11:34:41.569Z,36.40
2023-07-25T11:37:10.481Z,33.60
2023-07-25T11:39:38.565Z,35.10
2023-07-25T11:42:11.187Z,31.50
2023-07-25T11:44:41.873Z,30.10
2023-07-25T11:47:10.203Z,33.60
2023-07-25T11:49:49.523Z,29.90
2023-07-25T11:52:20.640Z,31.20
2023-07-25T11:54:49.142Z,30.10
2023-07-25T11:57:17.366Z,33.10
2023-07-25T11:59:45.522Z,32.50
2023-07-25T12:02:14.176Z,29.50
2023-07-25T12:04:46.096Z,28.50
2023-07-25T12:07:15.388Z,30.30
2023-07-25T12:09:50.494Z,29.60
2023-07-25T12:12:18.931Z,29.70
2023-07-25T12:14:57.077Z,33.00
2023-07-25T12:17:41.433Z,29.00
2023-07-25T12:20:21.435Z,28.70
2023-07-25T12:22:49.628Z,30.00
2023-07-25T12:25:20.872Z,29.80
2023-07-25T12:27:49.738Z,31.70
2023-07-25T12:30:18.168Z,29.40
2023-07-25T12:32:46.438Z,29.70
2023-07-25T12:35:14.658Z,31.80
2023-07-25T12:37:42.729Z,30.10
2023-07-25T12:40:11.005Z,29.40
2023-07-25T12:42:39.240Z,34.50
2023-07-25T12:45:10.445Z,29.20
2023-07-25T12:47:39.484Z,31.20
2023-07-25T12:50:10.788Z,29.50
2023-07-25T12:52:39.062Z,30.50
2023-07-25T12:55:07.767Z,30.00
2023-07-25T12:57:36.012Z,33.10
2023-07-25T13:00:08.662Z,31.60
2023-07-25T13:02:38.478Z,31.60
2023-07-25T13:05:07.422Z,29.60
2023-07-25T13:07:36.784Z,30.10
2023-07-25T13:10:08.096Z,32.20
2023-07-25T13:12:36.934Z,35.60
2023-07-25T13:15:06.630Z,33.60
2023-07-25T13:17:35.693Z,35.40
2023-07-25T13:20:05.624Z,32.40
2023-07-25T13:22:33.987Z,37.70
2023-07-25T13:25:03.060Z,30.60
2023-07-25T13:27:31.370Z,32.60
2023-07-25T13:29:59.721Z,31.50
2023-07-25T13:32:28.393Z,32.10
2023-07-25T13:34:58.846Z,30.10
2023-07-25T13:37:27.067Z,30.40
2023-07-25T13:39:55.271Z,30.10
2023-07-25T13:42:24.332Z,32.60
2023-07-25T13:44:52.552Z,30.30
2023-07-25T13:47:21.917Z,33.90
2023-07-25T13:49:50.124Z,34.60
2023-07-25T13:52:18.634Z,35.40
2023-07-25T13:54:46.833Z,33.30
2023-07-25T13:57:15.244Z,35.30
2023-07-25T13:59:43.637Z,38.00
2023-07-25T14:02:11.727Z,38.80
2023-07-25T14:04:42.891Z,38.40
2023-07-25T14:07:14.853Z,39.90
2023-07-25T14:09:43.227Z,40.30
2023-07-25T14:12:11.520Z,39.80
2023-07-25T14:14:40.488Z,38.80
2023-07-25T14:17:08.858Z,41.20
2023-07-25T14:19:37.028Z,40.50
2023-07-25T14:22:05.540Z,41.80
2023-07-25T14:24:33.990Z,41.10
2023-07-25T14:27:02.505Z,42.00
2023-07-25T14:29:30.685Z,42.70
2023-07-25T14:31:59.832Z,42.70
2023-07-25T14:34:28.021Z,43.00
2023-07-25T14:36:56.240Z,41.70
2023-07-25T14:39:24.322Z,42.90
2023-07-25T14:41:52.954Z,42.90
2023-07-25T14:44:24.131Z,43.40
2023-07-25T14:46:52.272Z,41.90
2023-07-25T14:49:21.310Z,43.10
2023-07-25T14:51:50.353Z,43.60
2023-07-25T14:54:18.456Z,44.00
2023-07-25T14:56:46.725Z,44.00
2023-07-25T14:59:15.447Z,44.40
2023-07-25T15:01:43.625Z,45.50
2023-07-25T15:04:11.915Z,45.60
2023-07-25T15:06:40.117Z,46.00
2023-07-25T15:09:08.238Z,46.30
2023-07-25T15:11:36.783Z,46.60
2023-07-25T15:14:08.027Z,46.50
2023-07-25T15:16:36.811Z,47.80
2023-07-25T15:19:05.050Z,46.50
2023-07-25T15:21:33.556Z,48.10
2023-07-25T15:24:02.353Z,47.80
2023-07-25T15:26:30.695Z,48.00
2023-07-25T15:28:59.526Z,48.50
2023-07-25T15:31:27.784Z,49.80
2023-07-25T15:33:56.190Z,49.10
2023-07-25T15:36:24.575Z,48.70
2023-07-25T15:38:52.721Z,48.70
2023-07-25T15:41:20.895Z,47.90
2023-07-25T15:43:49.330Z,49.60
2023-07-25T15:46:17.726Z,50.10
2023-07-25T15:48:48.478Z,49.80
2023-07-25T15:51:17.720Z,50.20
2023-07-25T15:53:45.936Z,50.80
2023-07-25T15:56:16.068Z,50.70
2023-07-25T15:58:44.154Z,51.40
2023-07-25T16:01:12.383Z,50.50
2023-07-25T16:03:43.967Z,51.70
2023-07-25T16:06:15.111Z,51.50
2023-07-25T16:08:43.333Z,52.30
2023-07-25T16:11:11.539Z,52.80
2023-07-25T16:13:40.685Z,53.30
2023-07-25T16:16:12.076Z,53.70
2023-07-25T16:18:40.435Z,53.90
2023-07-25T16:21:11.541Z,54.60
2023-07-25T16:23:39.842Z,54.50
2023-07-25T16:26:08.059Z,54.90
2023-07-25T16:28:36.289Z,55.30
2023-07-25T16:31:30.373Z,55.80
2023-07-25T16:33:53.102Z,56.10
2023-07-25T16:36:21.400Z,57.60
2023-07-25T16:38:49.572Z,57.00
2023-07-25T16:41:19.098Z,55.60
2023-07-25T16:43:47.297Z,56.80
2023-07-25T16:46:15.892Z,57.40
2023-07-25T16:48:44.176Z,57.90
2023-07-25T16:51:17.635Z,58.60
2023-07-25T16:53:45.903Z,59.10
2023-07-25T16:56:14.385Z,58.80
2023-07-25T16:58:42.526Z,59.40
2023-07-25T17:01:11.432Z,59.30
2023-07-25T17:03:39.526Z,60.90
2023-07-25T17:06:07.910Z,60.50
2023-07-25T17:08:36.278Z,59.70
2023-07-25T17:11:08.348Z,59.30
2023-07-25T17:13:36.610Z,60.50
2023-07-25T17:16:07.366Z,61.50
2023-07-25T17:18:35.931Z,61.80
2023-07-25T17:21:04.300Z,61.50
2023-07-25T17:23:32.644Z,61.70
2023-07-25T17:26:00.959Z,61.70
2023-07-25T17:28:29.006Z,62.40
2023-07-25T17:30:57.566Z,62.70
2023-07-25T17:33:25.739Z,61.40
2023-07-25T17:35:53.976Z,61.70
2023-07-25T17:38:22.179Z,63.00
2023-07-25T17:40:50.610Z,62.40
2023-07-25T17:43:18.828Z,62.60
2023-07-25T17:45:48.032Z,62.80
2023-07-25T17:48:18.379Z,64.40
2023-07-25T17:50:51.191Z,64.90
2023-07-25T17:53:20.618Z,65.10
2023-07-25T17:55:49.828Z,63.50
2023-07-25T17:58:18.014Z,62.80
2023-07-25T18:00:48.187Z,62.50
2023-07-25T18:03:16.684Z,62.70
2023-07-25T18:05:46.928Z,63.10
2023-07-25T18:08:15.659Z,63.70
2023-07-25T18:10:44.834Z,62.90
2023-07-25T18:13:13.761Z,61.60
2023-07-25T18:15:41.928Z,61.40
2023-07-25T18:18:10.230Z,63.40
2023-07-25T18:20:41.128Z,63.90
2023-07-25T18:23:09.246Z,63.60
2023-07-25T18:25:38.324Z,65.40
2023-07-25T18:28:06.910Z,63.80
2023-07-25T18:30:38.593Z,64.70
2023-07-25T18:33:07.299Z,65.80
2023-07-25T18:35:35.440Z,64.10
2023-07-25T18:38:03.651Z,63.50
2023-07-25T18:40:31.774Z,64.90
2023-07-25T18:43:00.050Z,64.50
2023-07-25T18:45:29.957Z,65.30
2023-07-25T18:47:58.282Z,66.00
2023-07-25T18:50:26.741Z,66.20
2023-07-25T18:52:55.713Z,66.40
2023-07-25T18:55:24.014Z,66.30
2023-07-25T18:57:52.264Z,67.90
2023-07-25T19:00:20.627Z,68.00
2023-07-25T19:02:48.841Z,67.70
2023-07-25T19:05:17.239Z,69.00
2023-07-25T19:07:45.459Z,68.40
2023-07-25T19:10:13.578Z,67.40
2023-07-25T19:12:41.718Z,67.90
2023-07-25T19:15:10.175Z,69.80
2023-07-25T19:17:38.268Z,68.60
2023-07-25T19:20:07.190Z,69.40
2023-07-25T19:22:35.676Z,69.00
2023-07-25T19:25:03.958Z,69.80
2023-07-25T19:27:35.164Z,68.80
2023-07-25T19:30:04.680Z,69.80
2023-07-25T19:32:32.936Z,70.70
2023-07-25T19:35:01.304Z,70.10
2023-07-25T19:37:29.646Z,71.20
2023-07-25T19:39:57.867Z,71.80
2023-07-25T19:42:28.731Z,71.50
2023-07-25T19:44:56.966Z,70.80
2023-07-25T19:47:25.255Z,71.50
2023-07-25T19:49:53.486Z,72.80
2023-07-25T19:52:21.712Z,73.10
2023-07-25T19:54:50.644Z,72.10
2023-07-25T19:57:18.847Z,71.80
2023-07-25T19:59:47.073Z,72.40
2023-07-25T20:02:15.861Z,73.90
2023-07-25T20:04:43.994Z,72.80
2023-07-25T20:07:12.184Z,73.80
2023-07-25T20:09:40.508Z,73.40
2023-07-25T20:12:09.771Z,72.70
2023-07-25T20:14:37.979Z,72.90
2023-07-25T20:17:06.330Z,74.10
2023-07-25T20:19:34.528Z,73.80
2023-07-25T20:28:35.748Z,73.90
2023-07-25T20:31:04.879Z,76.10
2023-07-25T20:33:41.658Z,76.50
2023-07-25T20:36:18.632Z,77.00
2023-07-25T20:39:00.653Z,76.20
2023-07-25T20:41:40.671Z,76.10
2023-07-25T20:44:17.693Z,76.60
2023-07-25T20:46:56.724Z,77.00
2023-07-25T20:49:35.720Z,77.60
2023-07-25T20:52:14.693Z,78.20
2023-07-25T20:54:56.721Z,78.20
2023-07-25T20:57:30.692Z,79.10
2023-07-25T21:00:06.690Z,79.10
2023-07-25T21:02:38.687Z,80.60
2023-07-25T21:05:07.133Z,79.30
2023-07-25T21:07:35.780Z,78.10
2023-07-25T21:10:04.049Z,78.50
2023-07-25T21:12:34.530Z,80.60
2023-07-25T21:15:02.719Z,79.40
2023-07-25T21:17:41.935Z,78.10
2023-07-25T21:20:12.687Z,78.70
2023-07-25T21:22:43.278Z,79.40
2023-07-25T21:25:14.024Z,78.70
2023-07-25T21:27:42.146Z,79.60
2023-07-25T21:30:15.029Z,80.60
2023-07-25T21:32:43.127Z,79.20
2023-07-25T21:42:43.358Z,72.20
2023-07-25T21:45:12.464Z,66.40
2023-07-25T21:47:40.737Z,60.30
2023-07-25T21:50:09.128Z,59.50
2023-07-25T21:52:37.283Z,59.30
2023-07-25T21:55:05.745Z,58.50
2023-07-25T21:57:36.140Z,57.90
2023-07-25T22:00:08.141Z,57.50
2023-07-25T22:02:44.534Z,57.50
2023-07-25T22:05:12.896Z,57.20
2023-07-25T22:07:41.416Z,57.60
2023-07-25T22:10:09.549Z,61.20
2023-07-25T22:12:37.813Z,63.60
2023-07-25T22:15:08.310Z,64.80
2023-07-25T22:17:36.403Z,60.30
2023-07-25T22:20:04.699Z,59.60
2023-07-25T22:22:32.828Z,59.90
2023-07-25T22:25:01.678Z,59.50
2023-07-25T22:27:35.261Z,59.20
2023-07-25T22:30:04.762Z,63.80
2023-07-25T22:32:33.005Z,65.90
2023-07-25T22:35:01.242Z,68.90
2023-07-25T22:37:31.253Z,70.50
2023-07-25T22:39:59.339Z,70.70
2023-07-25T22:42:27.559Z,71.30
2023-07-25T22:44:55.755Z,71.10
2023-07-25T22:47:23.923Z,72.40
2023-07-25T22:49:55.551Z,70.50
2023-07-25T22:52:26.994Z,65.50
2023-07-25T22:54:55.193Z,65.90
2023-07-25T22:57:23.479Z,65.30
2023-07-25T22:59:51.548Z,67.80
2023-07-25T23:02:19.683Z,70.00
2023-07-25T23:04:50.753Z,69.00
2023-07-25T23:07:22.018Z,66.70
2023-07-25T23:09:51.668Z,65.40
2023-07-25T23:12:23.107Z,63.60
2023-07-25T23:14:51.458Z,63.40
2023-07-25T23:17:24.753Z,62.60
2023-07-25T23:19:55.588Z,63.00
2023-07-25T23:22:24.596Z,60.50
2023-07-25T23:24:57.959Z,61.10
2023-07-25T23:27:26.619Z,56.50
2023-07-25T23:29:54.798Z,57.50
2023-07-25T23:32:23.052Z,59.20
2023-07-25T23:34:52.362Z,57.00
2023-07-25T23:37:20.653Z,56.20
2023-07-25T23:39:48.724Z,57.00
2023-07-25T23:42:17.003Z,57.30
2023-07-25T23:44:45.070Z,58.40
2023-07-25T23:47:13.449Z,57.80
2023-07-25T23:49:42.470Z,57.10
2023-07-25T23:52:10.706Z,56.70
2023-07-25T23:54:38.901Z,57.10
2023-07-25T23:57:07.109Z,56.80
2023-07-25T23:59:36.289Z,57.70
